createdAt,value
2022-09-18T00:01:10.504Z,0.85
2022-09-18T00:03:39.213Z,0.85
2022-09-18T00:06:08.563Z,1.10
2022-09-18T00:08:38.582Z,0.98
2022-09-18T00:11:09.341Z,0.90
2022-09-18T00:13:38.183Z,1.00
2022-09-18T00:16:06.950Z,1.00
2022-09-18T00:18:35.647Z,1.00
2022-09-18T00:21:07.663Z,1.10
2022-09-18T00:23:36.370Z,0.90
2022-09-18T00:26:04.947Z,0.93
2022-09-18T00:28:35.098Z,1.00
2022-09-18T00:31:06.842Z,1.00
2022-09-18T00:33:35.857Z,0.80
2022-09-18T00:36:04.818Z,0.85
2022-09-18T00:38:33.810Z,0.93
2022-09-18T00:41:02.508Z,1.27
2022-09-18T00:43:32.017Z,1.00
2022-09-18T00:46:03.860Z,0.93
2022-09-18T00:48:34.734Z,0.90
2022-09-18T00:51:03.244Z,0.77
2022-09-18T00:53:31.768Z,0.90
2022-09-18T00:56:01.139Z,0.98
2022-09-18T00:58:29.691Z,0.90
2022-09-18T01:00:59.233Z,0.90
2022-09-18T01:03:30.786Z,0.70
2022-09-18T01:06:08.028Z,0.90
2022-09-18T01:08:44.361Z,1.00
2022-09-18T01:11:18.860Z,0.90
2022-09-18T01:13:52.731Z,1.10
2022-09-18T01:16:24.319Z,0.82
2022-09-18T01:18:58.835Z,0.90
2022-09-18T01:21:32.729Z,0.93
2022-09-18T01:24:18.681Z,0.93
2022-09-18T01:26:55.316Z,0.90
2022-09-18T01:29:29.984Z,1.00
2022-09-18T01:32:00.601Z,1.00
2022-09-18T01:34:32.441Z,0.82
2022-09-18T01:37:03.420Z,0.90
2022-09-18T01:39:36.391Z,1.00
2022-09-18T01:42:05.420Z,0.90
2022-09-18T01:44:35.671Z,1.10
2022-09-18T01:47:07.793Z,1.10
2022-09-18T01:49:40.395Z,1.13
2022-09-18T01:52:10.498Z,1.77
2022-09-18T01:54:40.206Z,0.90
2022-09-18T01:57:11.801Z,1.00
2022-09-18T01:59:43.224Z,1.15
2022-09-18T02:02:15.775Z,1.00
2022-09-18T02:04:45.333Z,0.98
2022-09-18T02:07:15.745Z,0.90
2022-09-18T02:09:44.722Z,1.10
2022-09-18T02:12:14.433Z,0.90
2022-09-18T02:14:45.459Z,0.90
2022-09-18T02:17:17.216Z,1.23
2022-09-18T02:19:46.712Z,1.00
2022-09-18T02:22:17.047Z,1.00
2022-09-18T02:24:47.612Z,0.90
2022-09-18T02:27:17.384Z,0.95
2022-09-18T02:29:48.433Z,1.10
2022-09-18T02:32:16.872Z,1.20
2022-09-18T02:34:45.337Z,1.05
2022-09-18T02:37:20.715Z,0.95
2022-09-18T02:39:54.534Z,1.00
2022-09-18T02:42:29.528Z,1.10
2022-09-18T02:45:06.048Z,1.20
2022-09-18T02:47:40.520Z,0.90
2022-09-18T02:50:16.348Z,0.90
2022-09-18T02:52:47.670Z,1.10
2022-09-18T02:55:18.498Z,0.90
2022-09-18T02:57:49.052Z,1.00
2022-09-18T03:00:19.762Z,1.00
2022-09-18T03:02:48.574Z,1.08
2022-09-18T03:05:16.992Z,1.05
2022-09-18T03:07:45.440Z,1.15
2022-09-18T03:10:13.852Z,0.80
2022-09-18T03:12:42.251Z,1.00
2022-09-18T03:15:11.656Z,1.00
2022-09-18T03:17:41.435Z,0.85
2022-09-18T03:20:10.092Z,1.10
2022-09-18T03:22:38.482Z,1.20
2022-09-18T03:25:07.385Z,1.05
2022-09-18T03:27:35.801Z,1.00
2022-09-18T03:30:04.251Z,1.10
2022-09-18T03:32:32.676Z,1.10
2022-09-18T03:35:02.475Z,1.10
2022-09-18T03:37:31.047Z,1.20
2022-09-18T03:40:00.062Z,1.13
2022-09-18T03:42:28.486Z,0.90
2022-09-18T03:44:57.480Z,1.00
2022-09-18T03:47:25.997Z,1.10
2022-09-18T03:49:54.397Z,1.10
2022-09-18T03:52:24.168Z,1.13
2022-09-18T03:54:52.577Z,0.80
2022-09-18T03:57:20.966Z,1.13
2022-09-18T03:59:49.348Z,0.95
2022-09-18T04:02:17.908Z,0.80
2022-09-18T04:04:46.314Z,0.95
2022-09-18T04:07:14.724Z,0.88
2022-09-18T04:09:45.129Z,1.00
2022-09-18T04:12:13.525Z,1.00
2022-09-18T04:14:41.946Z,0.93
2022-09-18T04:17:11.115Z,0.95
2022-09-18T04:19:39.593Z,0.95
2022-09-18T04:22:08.031Z,0.93
2022-09-18T04:24:36.463Z,1.00
2022-09-18T04:27:06.349Z,1.10
2022-09-18T04:29:34.832Z,0.88
2022-09-18T04:32:03.340Z,1.00
2022-09-18T04:34:31.720Z,1.33
2022-09-18T04:37:00.313Z,1.00
2022-09-18T04:39:28.872Z,1.00
2022-09-18T04:41:57.440Z,1.20
2022-09-18T04:44:27.247Z,1.30
2022-09-18T04:46:55.690Z,1.83
2022-09-18T04:49:24.115Z,1.30
2022-09-18T04:51:52.535Z,1.50
2022-09-18T04:54:20.912Z,1.30
2022-09-18T04:56:49.362Z,1.15
2022-09-18T04:59:17.893Z,1.52
2022-09-18T05:01:47.736Z,1.40
2022-09-18T05:04:16.426Z,1.50
2022-09-18T05:06:44.824Z,1.50
2022-09-18T05:09:13.297Z,1.70
2022-09-18T05:11:41.713Z,1.52
2022-09-18T05:14:10.264Z,1.67
2022-09-18T05:16:38.718Z,1.90
2022-09-18T05:19:09.154Z,1.42
2022-09-18T05:21:37.604Z,1.73
2022-09-18T05:24:06.100Z,1.42
2022-09-18T05:26:35.339Z,1.70
2022-09-18T05:29:03.728Z,1.70
2022-09-18T05:31:32.183Z,2.00
2022-09-18T05:34:00.618Z,1.42
2022-09-18T05:36:30.398Z,1.70
2022-09-18T05:38:58.872Z,1.63
2022-09-18T05:41:27.287Z,1.60
2022-09-18T05:43:55.673Z,1.58
2022-09-18T05:46:24.099Z,1.55
2022-09-18T05:48:52.587Z,1.90
2022-09-18T05:51:20.982Z,1.50
2022-09-18T05:53:50.834Z,1.98
2022-09-18T05:56:19.521Z,1.45
2022-09-18T05:58:47.910Z,1.35
2022-09-18T06:01:16.326Z,2.00
2022-09-18T06:03:44.769Z,1.80
2022-09-18T06:06:13.291Z,1.50
2022-09-18T06:08:41.730Z,1.60
2022-09-18T06:11:11.526Z,1.70
2022-09-18T06:13:39.997Z,1.50
2022-09-18T06:16:08.524Z,1.40
2022-09-18T06:18:36.968Z,1.55
2022-09-18T06:21:05.500Z,1.90
2022-09-18T06:23:33.961Z,1.60
2022-09-18T06:26:02.993Z,1.98
2022-09-18T06:28:34.152Z,1.73
2022-09-18T06:31:03.356Z,1.58
2022-09-18T06:33:32.133Z,1.60
2022-09-18T06:36:06.221Z,1.88
2022-09-18T06:38:34.728Z,1.75
2022-09-18T06:41:03.112Z,1.98
2022-09-18T06:43:32.999Z,1.90
2022-09-18T06:46:01.457Z,2.17
2022-09-18T06:48:30.307Z,1.77
2022-09-18T06:50:59.654Z,1.90
2022-09-18T06:53:28.437Z,1.65
2022-09-18T06:56:00.413Z,1.92
2022-09-18T06:58:28.821Z,1.70
2022-09-18T07:01:00.944Z,1.83
2022-09-18T07:03:29.411Z,1.60
2022-09-18T07:05:57.837Z,1.77
2022-09-18T07:08:26.251Z,1.88
2022-09-18T07:10:54.668Z,1.52
2022-09-18T07:13:23.070Z,1.35
2022-09-18T07:15:51.513Z,1.52
2022-09-18T07:18:21.348Z,1.63
2022-09-18T07:20:49.942Z,1.63
2022-09-18T07:23:18.336Z,1.95
2022-09-18T07:25:46.896Z,1.75
2022-09-18T07:28:15.373Z,1.50
2022-09-18T07:30:44.136Z,1.48
2022-09-18T07:33:12.554Z,1.75
2022-09-18T07:35:42.370Z,1.80
2022-09-18T07:38:11.689Z,1.50
2022-09-18T07:40:41.312Z,1.77
2022-09-18T07:43:10.505Z,1.40
2022-09-18T07:45:38.905Z,1.30
2022-09-18T07:48:08.082Z,1.40
2022-09-18T07:50:36.758Z,1.70
2022-09-18T07:53:07.459Z,1.25
2022-09-18T07:55:36.755Z,1.33
2022-09-18T07:58:06.144Z,1.50
2022-09-18T08:00:35.772Z,1.40
2022-09-18T08:03:04.538Z,1.58
2022-09-18T08:05:33.018Z,1.45
2022-09-18T08:08:05.156Z,1.33
2022-09-18T08:10:35.363Z,1.50
2022-09-18T08:13:04.145Z,1.40
2022-09-18T08:15:32.818Z,1.42
2022-09-18T08:18:01.209Z,1.45
2022-09-18T08:20:29.689Z,1.38
2022-09-18T08:22:58.570Z,1.40
2022-09-18T08:25:28.506Z,1.20
2022-09-18T08:28:00.172Z,1.33
2022-09-18T08:30:28.620Z,1.10
2022-09-18T08:33:00.149Z,1.20
2022-09-18T08:35:28.916Z,1.55
2022-09-18T08:37:58.085Z,1.10
2022-09-18T08:40:31.855Z,1.20
2022-09-18T08:43:07.512Z,1.10
2022-09-18T08:45:44.387Z,1.38
2022-09-18T08:48:17.120Z,1.10
2022-09-18T08:50:49.332Z,0.98
2022-09-18T08:53:19.905Z,0.93
2022-09-18T08:55:49.769Z,1.15
2022-09-18T08:58:22.081Z,1.20
2022-09-18T09:00:52.040Z,1.23
2022-09-18T09:03:24.573Z,1.00
2022-09-18T09:05:55.000Z,1.10
2022-09-18T09:08:35.025Z,1.00
2022-09-18T09:11:08.117Z,1.08
2022-09-18T09:14:00.527Z,1.10
2022-09-18T09:16:35.451Z,0.90
2022-09-18T09:19:04.772Z,1.10
2022-09-18T09:21:43.081Z,0.80
2022-09-18T09:24:21.256Z,0.80
2022-09-18T09:26:50.201Z,0.95
2022-09-18T09:29:22.225Z,1.00
2022-09-18T09:31:53.626Z,1.10
2022-09-18T09:34:23.921Z,0.90
2022-09-18T09:36:54.329Z,0.90
2022-09-18T09:39:25.366Z,1.00
2022-09-18T09:41:57.032Z,0.90
2022-09-18T09:44:28.768Z,0.90
2022-09-18T09:47:02.539Z,0.75
2022-09-18T09:49:32.392Z,1.20
2022-09-18T09:52:08.892Z,0.90
2022-09-18T09:54:37.989Z,0.85
2022-09-18T09:57:14.096Z,0.80
2022-09-18T09:59:46.966Z,0.95
2022-09-18T10:02:27.483Z,1.02
2022-09-18T10:05:00.664Z,1.10
2022-09-18T10:07:32.832Z,0.73
2022-09-18T10:10:03.156Z,0.73
2022-09-18T10:12:34.703Z,0.80
2022-09-18T10:15:08.060Z,0.70
2022-09-18T10:17:38.108Z,1.00
2022-09-18T10:20:07.539Z,0.75
2022-09-18T10:22:37.553Z,0.80
2022-09-18T10:25:08.094Z,0.93
2022-09-18T10:27:36.601Z,0.80
2022-09-18T10:30:08.920Z,0.90
2022-09-18T10:32:39.446Z,1.00
2022-09-18T10:35:28.392Z,0.98
2022-09-18T10:37:56.801Z,0.80
2022-09-18T10:40:32.445Z,0.88
2022-09-18T10:43:01.517Z,0.88
2022-09-18T10:45:30.565Z,0.90
2022-09-18T10:48:08.602Z,0.90
2022-09-18T10:50:38.092Z,0.63
2022-09-18T10:53:23.777Z,0.80
2022-09-18T10:55:55.713Z,0.80
2022-09-18T10:58:28.049Z,0.90
2022-09-18T11:00:57.814Z,0.80
2022-09-18T11:03:37.597Z,0.98
2022-09-18T11:06:08.673Z,0.52
2022-09-18T11:08:38.409Z,0.88
2022-09-18T11:11:09.028Z,0.80
2022-09-18T11:13:39.946Z,0.70
2022-09-18T11:16:08.641Z,0.60
2022-09-18T11:18:39.396Z,0.77
2022-09-18T11:21:08.571Z,0.50
2022-09-18T11:23:37.968Z,0.80
2022-09-18T11:26:17.601Z,0.57
2022-09-18T11:28:59.403Z,0.75
2022-09-18T11:31:29.931Z,0.80
2022-09-18T11:34:04.296Z,0.50
2022-09-18T11:36:34.921Z,0.70
2022-09-18T11:39:03.602Z,0.55
2022-09-18T11:41:35.959Z,0.50
2022-09-18T11:44:06.450Z,0.50
2022-09-18T11:46:43.279Z,0.60
2022-09-18T11:49:14.954Z,0.50
2022-09-18T11:51:46.757Z,0.57
2022-09-18T11:54:18.925Z,0.60
2022-09-18T11:56:48.888Z,0.80
2022-09-18T11:59:22.732Z,0.65
2022-09-18T12:01:54.209Z,0.60
2022-09-18T12:04:27.909Z,0.60
2022-09-18T12:07:01.397Z,0.60
2022-09-18T12:09:32.955Z,0.60
2022-09-18T12:12:05.321Z,0.60
2022-09-18T12:14:36.857Z,0.50
2022-09-18T12:17:09.932Z,0.60
2022-09-18T12:19:41.263Z,0.70
2022-09-18T12:22:12.377Z,0.50
2022-09-18T12:24:40.773Z,0.60
2022-09-18T12:27:17.280Z,0.60
2022-09-18T12:29:55.183Z,0.50
2022-09-18T12:32:30.084Z,0.80
2022-09-18T12:35:03.560Z,0.70
2022-09-18T12:37:38.264Z,0.80
2022-09-18T12:40:14.299Z,0.50
2022-09-18T12:42:46.461Z,0.50
2022-09-18T12:45:22.594Z,0.80
2022-09-18T12:48:03.262Z,0.50
2022-09-18T12:50:45.702Z,0.63
2022-09-18T12:53:19.724Z,0.52
2022-09-18T12:55:56.781Z,0.50
2022-09-18T12:58:36.784Z,0.60
2022-09-18T13:01:07.006Z,0.50
2022-09-18T13:03:37.186Z,0.50
2022-09-18T13:06:09.456Z,0.50
2022-09-18T13:08:40.836Z,0.65
2022-09-18T13:11:11.465Z,0.57
2022-09-18T13:13:42.011Z,0.68
2022-09-18T13:16:12.941Z,0.50
2022-09-18T13:18:44.624Z,0.50
2022-09-18T13:21:20.297Z,0.60
2022-09-18T13:23:49.363Z,0.50
2022-09-18T13:26:18.042Z,0.68
2022-09-18T13:28:46.703Z,0.60
2022-09-18T13:31:17.547Z,0.50
2022-09-18T13:33:51.278Z,0.50
2022-09-18T13:36:26.039Z,0.60
2022-09-18T13:38:54.865Z,0.50
2022-09-18T13:41:23.421Z,0.50
2022-09-18T13:43:57.152Z,0.50
2022-09-18T13:46:36.654Z,0.50
2022-09-18T13:49:15.168Z,0.50
2022-09-18T13:51:44.969Z,0.55
2022-09-18T13:54:24.403Z,0.50
2022-09-18T13:57:10.809Z,0.50
2022-09-18T13:59:49.583Z,0.50
2022-09-18T14:02:24.876Z,0.43
2022-09-18T14:05:11.323Z,0.63
2022-09-18T14:07:51.031Z,0.50
2022-09-18T14:10:23.612Z,0.45
2022-09-18T14:13:06.126Z,0.50
2022-09-18T14:15:34.764Z,0.40
2022-09-18T14:18:08.032Z,0.40
2022-09-18T14:20:36.556Z,0.60
2022-09-18T14:23:23.424Z,0.60
2022-09-18T14:25:53.263Z,0.50
2022-09-18T14:28:21.944Z,0.60
2022-09-18T14:31:05.246Z,0.60
2022-09-18T14:33:35.403Z,0.50
2022-09-18T14:36:05.129Z,0.50
2022-09-18T14:38:36.999Z,0.65
2022-09-18T14:41:16.048Z,0.60
2022-09-18T14:43:49.422Z,0.60
2022-09-18T14:46:21.090Z,0.70
2022-09-18T14:48:49.923Z,0.60
2022-09-18T14:51:19.938Z,0.60
2022-09-18T14:53:50.659Z,0.70
2022-09-18T14:56:22.054Z,0.57
2022-09-18T14:58:51.220Z,0.60
2022-09-18T15:01:22.792Z,0.50
2022-09-18T15:03:52.173Z,0.50
2022-09-18T15:06:22.215Z,0.50
2022-09-18T15:08:51.956Z,0.60
2022-09-18T15:11:23.428Z,0.82
2022-09-18T15:13:52.718Z,0.50
2022-09-18T15:16:22.423Z,0.60
2022-09-18T15:18:50.853Z,0.60
2022-09-18T15:21:23.715Z,0.60
2022-09-18T15:23:52.249Z,0.63
2022-09-18T15:26:24.934Z,1.15
2022-09-18T15:28:54.125Z,0.57
2022-09-18T15:31:23.532Z,1.00
2022-09-18T15:33:55.342Z,0.90
2022-09-18T15:36:26.187Z,0.95
2022-09-18T15:38:55.038Z,0.80
2022-09-18T15:41:29.704Z,0.60
2022-09-18T15:43:58.127Z,0.50
2022-09-18T15:46:27.770Z,0.70
2022-09-18T15:48:59.504Z,0.57
2022-09-18T15:51:29.336Z,0.52
2022-09-18T15:54:09.805Z,0.60
2022-09-18T15:56:50.073Z,0.45
2022-09-18T15:59:20.250Z,0.70
2022-09-18T16:01:49.495Z,0.70
2022-09-18T16:04:20.238Z,0.52
2022-09-18T16:06:54.215Z,0.60
2022-09-18T16:09:37.483Z,0.60
2022-09-18T16:12:20.822Z,0.50
2022-09-18T16:15:00.941Z,0.60
2022-09-18T16:17:36.574Z,0.60
2022-09-18T16:20:20.364Z,0.55
2022-09-18T16:22:48.939Z,0.80
2022-09-18T16:25:21.102Z,0.50
2022-09-18T16:27:50.712Z,0.60
2022-09-18T16:30:20.533Z,0.70
2022-09-18T16:32:48.916Z,0.65
2022-09-18T16:35:17.828Z,0.60
2022-09-18T16:37:46.245Z,0.60
2022-09-18T16:40:18.874Z,0.80
2022-09-18T16:42:47.508Z,0.60
2022-09-18T16:45:15.928Z,0.85
2022-09-18T16:47:47.469Z,0.70
2022-09-18T16:50:18.405Z,1.00
2022-09-18T16:52:46.853Z,0.55
2022-09-18T16:55:15.426Z,0.70
2022-09-18T16:57:44.144Z,0.70
2022-09-18T17:00:13.183Z,0.70
2022-09-18T17:02:41.744Z,0.70
2022-09-18T17:05:11.588Z,0.70
2022-09-18T17:07:42.616Z,0.60
2022-09-18T17:10:12.351Z,0.70
2022-09-18T17:12:40.823Z,0.80
2022-09-18T17:15:09.794Z,0.60
2022-09-18T17:17:38.193Z,0.80
2022-09-18T17:20:07.197Z,0.70
2022-09-18T17:22:37.022Z,0.77
2022-09-18T17:25:05.572Z,0.70
2022-09-18T17:27:34.579Z,0.60
2022-09-18T17:30:03.251Z,0.80
2022-09-18T17:32:31.607Z,0.70
2022-09-18T17:35:00.014Z,0.65
2022-09-18T17:37:29.635Z,0.80
2022-09-18T17:40:00.416Z,0.80
2022-09-18T17:42:28.899Z,0.88
2022-09-18T17:44:57.366Z,0.70
2022-09-18T17:47:26.110Z,0.85
2022-09-18T17:49:54.481Z,0.80
2022-09-18T17:52:22.935Z,0.80
2022-09-18T17:54:51.332Z,0.82
2022-09-18T17:57:21.104Z,0.80
2022-09-18T17:59:49.532Z,0.80
2022-09-18T18:02:17.999Z,0.80
2022-09-18T18:04:46.435Z,0.82
2022-09-18T18:07:14.835Z,0.90
2022-09-18T18:09:43.240Z,1.33
2022-09-18T18:12:11.656Z,1.23
2022-09-18T18:14:41.727Z,1.40
2022-09-18T18:17:10.122Z,1.10
2022-09-18T18:19:39.044Z,1.38
2022-09-18T18:22:07.473Z,1.23
2022-09-18T18:24:35.866Z,1.20
2022-09-18T18:27:05.266Z,1.10
2022-09-18T18:29:33.741Z,0.93
2022-09-18T18:32:03.740Z,1.08
2022-09-18T18:34:32.750Z,1.13
2022-09-18T18:37:02.965Z,0.90
2022-09-18T18:39:31.348Z,1.40
2022-09-18T18:41:59.756Z,1.10
2022-09-18T18:44:28.198Z,1.00
2022-09-18T18:46:56.836Z,0.80
2022-09-18T18:49:27.631Z,1.00
2022-09-18T18:51:57.132Z,1.08
2022-09-18T18:54:25.564Z,0.80
2022-09-18T18:56:53.953Z,0.90
2022-09-18T18:59:24.368Z,0.90
2022-09-18T19:01:55.870Z,0.90
2022-09-18T19:04:24.721Z,0.80
2022-09-18T19:06:54.677Z,1.05
2022-09-18T19:09:24.403Z,0.75
2022-09-18T19:11:53.956Z,0.90
2022-09-18T19:14:23.473Z,0.70
2022-09-18T19:16:52.228Z,0.75
2022-09-18T19:19:21.347Z,0.60
2022-09-18T19:21:49.763Z,0.60
2022-09-18T19:24:19.788Z,0.60
2022-09-18T19:26:48.707Z,0.70
2022-09-18T19:29:18.301Z,0.70
2022-09-18T19:31:47.283Z,0.68
2022-09-18T19:34:17.152Z,0.82
2022-09-18T19:36:47.140Z,0.80
2022-09-18T19:39:15.696Z,1.02
2022-09-18T19:41:48.029Z,0.90
2022-09-18T19:44:19.183Z,1.05
2022-09-18T19:46:48.206Z,0.80
2022-09-18T19:49:18.432Z,1.00
2022-09-18T19:51:46.978Z,1.08
2022-09-18T19:54:15.704Z,1.00
2022-09-18T19:56:48.417Z,0.80
2022-09-18T19:59:17.159Z,1.10
2022-09-18T20:01:45.992Z,1.17
2022-09-18T20:04:14.445Z,0.90
2022-09-18T20:06:42.902Z,0.88
2022-09-18T20:09:11.348Z,1.23
2022-09-18T20:11:39.760Z,0.90
2022-09-18T20:14:09.589Z,0.80
2022-09-18T20:16:38.050Z,0.90
2022-09-18T20:19:06.666Z,1.00
2022-09-18T20:21:35.070Z,1.00
2022-09-18T20:24:03.758Z,1.00
2022-09-18T20:26:32.271Z,0.85
2022-09-18T20:29:00.697Z,0.80
2022-09-18T20:31:30.797Z,1.05
2022-09-18T20:33:59.968Z,1.00
2022-09-18T20:36:29.449Z,1.00
2022-09-18T20:39:00.894Z,1.00
2022-09-18T20:41:30.045Z,1.17
2022-09-18T20:44:01.663Z,0.90
2022-09-18T20:46:35.160Z,0.90
2022-09-18T20:49:06.396Z,1.00
2022-09-18T20:51:35.995Z,0.80
2022-09-18T20:54:09.257Z,0.75
2022-09-18T20:56:41.329Z,0.90
2022-09-18T20:59:10.840Z,0.90
2022-09-18T21:01:42.342Z,0.90
2022-09-18T21:04:17.387Z,0.90
2022-09-18T21:06:46.549Z,0.90
2022-09-18T21:09:15.191Z,0.80
2022-09-18T21:11:44.790Z,0.77
2022-09-18T21:14:15.387Z,1.10
2022-09-18T21:16:45.436Z,0.65
2022-09-18T21:19:14.173Z,0.80
2022-09-18T21:21:42.591Z,0.80
2022-09-18T21:24:11.380Z,0.90
2022-09-18T21:26:41.134Z,0.80
2022-09-18T21:29:12.859Z,0.70
2022-09-18T21:31:43.275Z,0.82
2022-09-18T21:34:14.119Z,0.80
2022-09-18T21:36:43.996Z,0.80
2022-09-18T21:39:13.196Z,0.98
2022-09-18T21:41:46.052Z,0.80
2022-09-18T21:44:15.285Z,0.80
2022-09-18T21:46:44.098Z,0.77
2022-09-18T21:49:15.024Z,0.90
2022-09-18T21:51:43.724Z,1.98
2022-09-18T21:54:15.473Z,0.75
2022-09-18T21:56:44.160Z,0.80
2022-09-18T21:59:12.712Z,0.90
2022-09-18T22:01:42.832Z,0.80
2022-09-18T22:04:12.118Z,0.80
2022-09-18T22:06:43.700Z,0.82
2022-09-18T22:09:13.156Z,0.73
2022-09-18T22:11:42.474Z,0.90
2022-09-18T22:14:12.139Z,0.80
2022-09-18T22:16:41.164Z,0.82
2022-09-18T22:19:10.309Z,0.95
2022-09-18T22:21:39.752Z,0.80
2022-09-18T22:24:10.968Z,0.80
2022-09-18T22:26:40.966Z,0.80
2022-09-18T22:29:10.197Z,0.90
2022-09-18T22:31:39.367Z,0.80
2022-09-18T22:34:08.271Z,0.68
2022-09-18T22:36:36.651Z,1.00
2022-09-18T22:39:05.108Z,0.65
2022-09-18T22:41:37.251Z,0.80
2022-09-18T22:44:06.388Z,0.68
2022-09-18T22:46:35.260Z,0.82
2022-09-18T22:49:03.758Z,0.80
2022-09-18T22:51:32.226Z,0.70
2022-09-18T22:54:07.605Z,0.80
2022-09-18T22:56:38.876Z,0.60
2022-09-18T22:59:07.617Z,0.80
2022-09-18T23:01:37.433Z,0.70
2022-09-18T23:04:06.146Z,0.60
2022-09-18T23:06:35.022Z,0.60
2022-09-18T23:09:03.638Z,0.70
2022-09-18T23:11:33.522Z,0.80
2022-09-18T23:14:03.971Z,0.93
2022-09-18T23:16:33.359Z,0.70
2022-09-18T23:19:03.566Z,0.80
2022-09-18T23:21:33.381Z,0.77
2022-09-18T23:24:05.949Z,0.60
2022-09-18T23:26:38.096Z,0.80
2022-09-18T23:29:09.579Z,0.80
2022-09-18T23:31:39.358Z,0.68
2022-09-18T23:34:10.323Z,0.63
2022-09-18T23:36:39.456Z,0.80
2022-09-18T23:39:08.769Z,1.13
2022-09-18T23:41:38.080Z,0.77
2022-09-18T23:44:08.863Z,0.70
2022-09-18T23:46:37.548Z,0.70
2022-09-18T23:49:07.030Z,0.68
2022-09-18T23:51:36.844Z,0.70
2022-09-18T23:54:06.308Z,0.70
2022-09-18T23:56:37.427Z,0.80
2022-09-18T23:59:06.399Z,0.70
